createdAt,value
2018-07-17T00:00:01.437Z,0.00
2018-07-17T00:01:01.617Z,0.00
2018-07-17T00:02:01.805Z,0.00
2018-07-17T00:03:01.985Z,0.00
2018-07-17T00:04:02.188Z,0.00
2018-07-17T00:05:02.378Z,0.00
2018-07-17T00:06:02.564Z,0.00
2018-07-17T00:07:02.750Z,0.00
2018-07-17T00:08:02.938Z,0.00
2018-07-17T00:09:03.125Z,0.00
2018-07-17T00:10:03.316Z,0.00
2018-07-17T00:11:03.501Z,0.00
2018-07-17T00:12:03.687Z,0.00
2018-07-17T00:13:03.875Z,0.00
2018-07-17T00:14:04.061Z,0.00
2018-07-17T00:15:04.249Z,0.00
2018-07-17T00:16:04.435Z,0.00
2018-07-17T00:17:04.622Z,0.00
2018-07-17T00:18:04.805Z,0.00
2018-07-17T00:19:05.004Z,0.00
2018-07-17T00:20:05.182Z,0.00
2018-07-17T00:21:05.374Z,0.00
2018-07-17T00:22:05.562Z,0.00
2018-07-17T00:23:05.748Z,0.00
2018-07-17T00:24:05.938Z,0.00
2018-07-17T00:25:06.127Z,0.00
2018-07-17T00:26:06.311Z,0.00
2018-07-17T00:27:06.504Z,0.00
2018-07-17T00:28:06.680Z,0.00
2018-07-17T00:29:06.862Z,0.00
2018-07-17T00:30:07.069Z,0.00
2018-07-17T00:31:07.257Z,0.00
2018-07-17T00:32:07.443Z,0.00
2018-07-17T00:33:07.628Z,0.00
2018-07-17T00:34:07.821Z,0.00
2018-07-17T00:35:08.019Z,0.00
2018-07-17T00:36:08.216Z,0.00
2018-07-17T00:37:08.413Z,0.00
2018-07-17T00:38:08.601Z,0.00
2018-07-17T00:39:08.793Z,0.00
2018-07-17T00:40:08.987Z,0.00
2018-07-17T00:41:09.202Z,0.00
2018-07-17T00:42:09.386Z,0.00
2018-07-17T00:43:09.579Z,0.00
2018-07-17T00:44:09.768Z,0.00
2018-07-17T00:45:09.961Z,0.00
2018-07-17T00:46:10.153Z,0.00
2018-07-17T00:47:10.340Z,0.00
2018-07-17T00:48:10.526Z,0.00
2018-07-17T00:49:10.710Z,0.00
2018-07-17T00:50:10.900Z,0.00
2018-07-17T00:51:11.095Z,0.00
2018-07-17T00:52:11.283Z,0.00
2018-07-17T00:53:11.470Z,0.00
2018-07-17T00:54:11.675Z,0.00
2018-07-17T00:55:11.858Z,0.00
2018-07-17T00:56:12.066Z,0.00
2018-07-17T00:57:12.227Z,0.00
2018-07-17T00:58:12.419Z,0.00
2018-07-17T00:59:12.598Z,0.00
2018-07-17T01:00:12.786Z,0.00
2018-07-17T01:01:13.029Z,0.00
2018-07-17T01:02:13.161Z,0.00
2018-07-17T01:03:13.341Z,0.00
2018-07-17T01:04:13.527Z,0.00
2018-07-17T01:05:13.711Z,0.00
2018-07-17T01:06:13.920Z,0.00
2018-07-17T01:07:14.508Z,0.00
2018-07-17T01:08:14.291Z,0.00
2018-07-17T01:09:14.481Z,0.00
2018-07-17T01:10:14.670Z,0.00
2018-07-17T01:11:14.850Z,0.00
2018-07-17T01:12:15.037Z,0.00
2018-07-17T01:13:15.217Z,0.00
2018-07-17T01:14:15.404Z,0.00
2018-07-17T01:15:15.589Z,0.00
2018-07-17T01:16:15.779Z,0.00
2018-07-17T01:17:15.963Z,0.00
2018-07-17T01:18:16.152Z,0.00
2018-07-17T01:19:16.338Z,0.00
2018-07-17T01:20:16.517Z,0.00
2018-07-17T01:21:16.704Z,0.00
2018-07-17T01:22:16.890Z,0.00
2018-07-17T01:23:17.077Z,0.00
2018-07-17T01:24:17.264Z,0.00
2018-07-17T01:25:17.444Z,0.00
2018-07-17T01:26:17.636Z,0.00
2018-07-17T01:27:17.832Z,0.00
2018-07-17T01:28:18.006Z,0.00
2018-07-17T01:29:18.197Z,0.00
2018-07-17T01:30:18.381Z,0.00
2018-07-17T01:31:18.571Z,0.00
2018-07-17T01:32:18.754Z,0.00
2018-07-17T01:33:18.940Z,0.00
2018-07-17T01:34:19.124Z,0.00
2018-07-17T01:35:19.316Z,0.00
2018-07-17T01:36:19.502Z,0.00
2018-07-17T01:37:19.686Z,0.00
2018-07-17T01:38:19.920Z,0.00
2018-07-17T01:39:20.053Z,0.00
2018-07-17T01:40:20.238Z,0.00
2018-07-17T01:41:20.426Z,0.00
2018-07-17T01:42:20.610Z,0.00
2018-07-17T01:43:20.801Z,0.00
2018-07-17T01:44:20.987Z,0.00
2018-07-17T01:45:21.175Z,0.00
2018-07-17T01:46:21.361Z,0.00
2018-07-17T01:47:21.548Z,0.00
2018-07-17T01:48:21.732Z,0.00
2018-07-17T01:49:21.923Z,0.00
2018-07-17T01:50:22.109Z,0.00
2018-07-17T01:51:22.285Z,0.00
2018-07-17T01:52:22.488Z,0.00
2018-07-17T01:53:22.676Z,0.00
2018-07-17T01:54:22.858Z,0.00
2018-07-17T01:55:23.041Z,0.00
2018-07-17T01:56:23.227Z,0.00
2018-07-17T01:57:23.412Z,0.00
2018-07-17T01:58:23.600Z,0.00
2018-07-17T01:59:23.785Z,0.00
2018-07-17T02:00:23.973Z,0.00
2018-07-17T02:01:24.156Z,0.00
2018-07-17T02:02:24.342Z,0.00
2018-07-17T02:03:24.530Z,0.00
2018-07-17T02:04:24.725Z,0.00
2018-07-17T02:05:24.904Z,0.00
2018-07-17T02:06:25.088Z,0.00
2018-07-17T02:07:25.276Z,0.00
2018-07-17T02:08:25.461Z,0.00
2018-07-17T02:09:25.649Z,0.00
2018-07-17T02:10:25.835Z,0.00
2018-07-17T02:11:26.027Z,0.00
2018-07-17T02:12:26.212Z,0.00
2018-07-17T02:13:26.403Z,0.00
2018-07-17T02:14:26.587Z,0.00
2018-07-17T02:15:26.772Z,0.00
2018-07-17T02:16:26.955Z,0.00
2018-07-17T02:17:27.144Z,0.00
2018-07-17T02:18:27.333Z,0.00
2018-07-17T02:19:27.516Z,0.00
2018-07-17T02:20:27.702Z,0.00
2018-07-17T02:21:27.888Z,0.00
2018-07-17T02:22:28.076Z,0.00
2018-07-17T02:23:28.251Z,0.00
2018-07-17T02:24:28.447Z,0.00
2018-07-17T02:25:28.631Z,0.00
2018-07-17T02:26:28.820Z,0.00
2018-07-17T02:27:29.005Z,0.00
2018-07-17T02:28:29.191Z,0.00
2018-07-17T02:29:29.377Z,0.00
2018-07-17T02:30:29.561Z,0.00
2018-07-17T02:31:29.748Z,0.00
2018-07-17T02:32:29.935Z,0.00
2018-07-17T02:33:30.119Z,0.00
2018-07-17T02:34:30.300Z,0.00
2018-07-17T02:35:30.493Z,0.00
2018-07-17T02:36:30.676Z,0.00
2018-07-17T02:37:30.903Z,0.00
2018-07-17T02:38:31.048Z,0.00
2018-07-17T02:39:31.239Z,0.00
2018-07-17T02:40:31.425Z,0.00
2018-07-17T02:41:31.609Z,0.00
2018-07-17T02:42:31.796Z,0.00
2018-07-17T02:43:31.981Z,0.00
2018-07-17T02:44:32.169Z,0.00
2018-07-17T02:45:32.354Z,0.00
2018-07-17T02:46:32.546Z,0.00
2018-07-17T02:47:32.723Z,0.00
2018-07-17T02:48:32.910Z,0.00
2018-07-17T02:49:33.097Z,0.00
2018-07-17T02:50:33.281Z,0.00
2018-07-17T02:51:33.467Z,0.00
2018-07-17T02:52:33.654Z,0.00
2018-07-17T02:53:33.841Z,0.00
2018-07-17T02:54:34.026Z,0.00
2018-07-17T02:55:34.206Z,0.00
2018-07-17T02:56:34.396Z,0.00
2018-07-17T02:57:34.582Z,0.00
2018-07-17T02:58:34.768Z,0.00
2018-07-17T02:59:34.951Z,0.00
2018-07-17T03:00:35.128Z,0.00
2018-07-17T03:01:35.321Z,0.00
2018-07-17T03:02:35.502Z,0.00
2018-07-17T03:03:35.690Z,0.00
2018-07-17T03:04:35.876Z,0.00
2018-07-17T03:05:36.056Z,0.00
2018-07-17T03:06:36.249Z,0.00
2018-07-17T03:07:36.436Z,0.00
2018-07-17T03:08:36.622Z,0.00
2018-07-17T03:09:36.805Z,0.00
2018-07-17T03:10:37.003Z,0.00
2018-07-17T03:11:37.169Z,0.00
2018-07-17T03:12:37.356Z,0.00
2018-07-17T03:13:37.541Z,0.00
2018-07-17T03:14:37.723Z,0.00
2018-07-17T03:15:37.908Z,0.00
2018-07-17T03:16:38.098Z,0.00
2018-07-17T03:17:38.277Z,0.00
2018-07-17T03:18:38.467Z,0.00
2018-07-17T03:19:38.648Z,0.00
2018-07-17T03:20:38.856Z,5.63
2018-07-17T03:21:39.044Z,5.63
2018-07-17T03:22:39.229Z,5.63
2018-07-17T03:23:39.418Z,5.63
2018-07-17T03:24:39.745Z,5.63
2018-07-17T03:25:39.786Z,5.63
2018-07-17T03:26:39.976Z,5.63
2018-07-17T03:27:40.162Z,11.25
2018-07-17T03:28:40.348Z,11.25
2018-07-17T03:29:40.538Z,11.25
2018-07-17T03:30:40.723Z,11.25
2018-07-17T03:31:40.910Z,11.25
2018-07-17T03:32:41.092Z,16.88
2018-07-17T03:33:41.278Z,16.88
2018-07-17T03:34:41.460Z,16.88
2018-07-17T03:35:41.656Z,22.50
2018-07-17T03:36:41.842Z,22.50
2018-07-17T03:37:42.027Z,22.50
2018-07-17T03:38:42.218Z,28.13
2018-07-17T03:39:42.406Z,28.13
2018-07-17T03:40:42.593Z,28.13
2018-07-17T03:41:42.781Z,33.75
2018-07-17T03:42:42.966Z,33.75
2018-07-17T03:43:43.153Z,33.75
2018-07-17T03:44:43.341Z,39.38
2018-07-17T03:45:43.523Z,39.38
2018-07-17T03:46:43.712Z,39.38
2018-07-17T03:47:43.895Z,45.00
2018-07-17T03:48:44.082Z,45.00
2018-07-17T03:49:44.268Z,45.00
2018-07-17T03:50:44.457Z,50.63
2018-07-17T03:51:44.638Z,50.63
2018-07-17T03:52:44.822Z,50.63
2018-07-17T03:53:45.013Z,56.25
2018-07-17T03:54:45.199Z,61.88
2018-07-17T03:55:45.379Z,61.88
2018-07-17T03:56:45.567Z,67.50
2018-07-17T03:57:45.752Z,67.50
2018-07-17T03:58:45.944Z,73.13
2018-07-17T03:59:46.126Z,73.13
2018-07-17T04:00:46.321Z,73.13
2018-07-17T04:01:46.514Z,73.13
2018-07-17T04:02:46.707Z,73.13
2018-07-17T04:03:46.886Z,78.75
2018-07-17T04:04:47.082Z,84.38
2018-07-17T04:05:47.268Z,84.38
2018-07-17T04:06:47.451Z,90.00
2018-07-17T04:07:47.637Z,90.00
2018-07-17T04:08:47.875Z,90.00
2018-07-17T04:09:48.013Z,95.63
2018-07-17T04:10:48.202Z,95.63
2018-07-17T04:11:48.390Z,101.25
2018-07-17T04:12:48.592Z,106.88
2018-07-17T04:13:48.763Z,112.50
2018-07-17T04:14:48.951Z,112.50
2018-07-17T04:15:49.138Z,118.13
2018-07-17T04:16:49.325Z,118.13
2018-07-17T04:17:49.516Z,129.38
2018-07-17T04:18:49.702Z,129.38
2018-07-17T04:19:49.887Z,129.38
2018-07-17T04:20:50.079Z,129.38
2018-07-17T04:21:50.263Z,135.00
2018-07-17T04:22:50.454Z,140.63
2018-07-17T04:23:50.636Z,146.25
2018-07-17T04:24:50.811Z,146.25
2018-07-17T04:25:51.005Z,140.63
2018-07-17T04:26:51.184Z,140.63
2018-07-17T04:27:51.371Z,140.63
2018-07-17T04:28:51.552Z,140.63
2018-07-17T04:29:51.779Z,140.63
2018-07-17T04:30:51.932Z,140.63
2018-07-17T04:31:52.225Z,140.63
2018-07-17T04:32:52.310Z,140.63
2018-07-17T04:33:52.496Z,146.25
2018-07-17T04:34:52.685Z,151.88
2018-07-17T04:35:52.887Z,163.13
2018-07-17T04:36:53.074Z,174.38
2018-07-17T04:37:53.265Z,174.38
2018-07-17T04:38:53.450Z,180.00
2018-07-17T04:39:53.637Z,185.63
2018-07-17T04:40:53.830Z,191.25
2018-07-17T04:41:54.056Z,196.88
2018-07-17T04:42:54.202Z,196.88
2018-07-17T04:43:54.388Z,208.13
2018-07-17T04:44:54.580Z,213.75
2018-07-17T04:45:54.760Z,225.00
2018-07-17T04:46:54.943Z,241.88
2018-07-17T04:47:55.129Z,264.38
2018-07-17T04:48:55.317Z,275.63
2018-07-17T04:49:55.500Z,309.38
2018-07-17T04:50:55.688Z,382.50
2018-07-17T04:51:55.876Z,506.25
2018-07-17T04:52:56.065Z,720.00
2018-07-17T04:53:56.306Z,1023.75
2018-07-17T04:54:56.436Z,1175.63
2018-07-17T04:55:56.636Z,1198.13
2018-07-17T04:56:56.822Z,1209.38
2018-07-17T04:57:57.013Z,1243.13
2018-07-17T04:58:57.196Z,1254.38
2018-07-17T04:59:57.387Z,517.50
2018-07-17T05:00:57.581Z,1181.25
2018-07-17T05:01:57.789Z,1327.50
2018-07-17T05:02:57.956Z,1400.63
2018-07-17T05:03:58.138Z,1288.13
2018-07-17T05:04:58.323Z,1215.00
2018-07-17T05:05:58.516Z,1231.88
2018-07-17T05:06:58.704Z,1276.88
2018-07-17T05:07:58.894Z,1198.13
2018-07-17T05:08:59.082Z,1254.38
2018-07-17T05:09:59.272Z,1282.50
2018-07-17T05:10:59.461Z,1321.88
2018-07-17T05:11:59.654Z,1400.63
2018-07-17T05:12:59.880Z,1710.00
2018-07-17T05:14:00.034Z,1726.88
2018-07-17T05:15:00.225Z,1738.13
2018-07-17T05:16:00.418Z,1721.25
2018-07-17T05:17:00.608Z,1698.75
2018-07-17T05:18:00.800Z,1687.50
2018-07-17T05:19:00.991Z,1687.50
2018-07-17T05:20:01.187Z,1698.75
2018-07-17T05:21:01.377Z,1721.25
2018-07-17T05:22:01.569Z,1749.38
2018-07-17T05:23:01.779Z,1743.75
2018-07-17T05:24:01.961Z,1749.38
2018-07-17T05:25:02.168Z,1732.50
2018-07-17T05:26:02.356Z,1710.00
2018-07-17T05:27:02.550Z,1648.13
2018-07-17T05:28:02.747Z,1603.13
2018-07-17T05:29:03.017Z,1642.50
2018-07-17T05:30:03.138Z,1620.00
2018-07-17T05:31:03.329Z,1451.25
2018-07-17T05:32:03.523Z,1389.38
2018-07-17T05:33:03.717Z,1395.00
2018-07-17T05:34:03.919Z,1485.00
2018-07-17T05:35:04.124Z,1507.50
2018-07-17T05:36:04.309Z,1575.00
2018-07-17T05:37:04.505Z,1659.38
2018-07-17T05:38:04.704Z,1659.38
2018-07-17T05:39:04.899Z,1693.13
2018-07-17T05:40:05.095Z,1805.63
2018-07-17T05:41:05.291Z,1912.50
2018-07-17T05:42:05.493Z,1991.25
2018-07-17T05:43:05.687Z,1991.25
2018-07-17T05:44:05.884Z,2002.50
2018-07-17T05:45:06.081Z,2058.75
2018-07-17T05:46:06.281Z,2025.00
2018-07-17T05:47:06.481Z,2115.00
2018-07-17T05:48:06.679Z,2131.88
2018-07-17T05:49:06.878Z,2154.38
2018-07-17T05:50:07.082Z,2165.63
2018-07-17T05:51:07.279Z,2171.25
2018-07-17T05:52:07.475Z,2165.63
2018-07-17T05:53:07.672Z,2171.25
2018-07-17T05:54:07.869Z,2160.00
2018-07-17T05:55:08.071Z,2126.25
2018-07-17T05:56:08.267Z,2165.63
2018-07-17T05:57:08.472Z,2176.88
2018-07-17T05:58:08.675Z,2165.63
2018-07-17T05:59:08.878Z,2160.00
2018-07-17T06:00:09.080Z,2148.75
2018-07-17T06:01:09.278Z,2098.13
2018-07-17T06:02:09.479Z,2047.50
2018-07-17T06:03:09.681Z,2002.50
2018-07-17T06:04:09.886Z,1980.00
2018-07-17T06:05:10.078Z,1991.25
2018-07-17T06:06:10.277Z,2041.88
2018-07-17T06:07:10.475Z,2103.75
2018-07-17T06:08:10.675Z,2160.00
2018-07-17T06:09:10.875Z,2210.63
2018-07-17T06:10:11.087Z,2244.38
2018-07-17T06:11:11.281Z,2278.13
2018-07-17T06:12:11.479Z,2306.25
2018-07-17T06:13:11.681Z,2289.38
2018-07-17T06:14:11.879Z,2261.25
2018-07-17T06:15:12.077Z,2261.25
2018-07-17T06:16:12.304Z,2227.50
2018-07-17T06:17:12.504Z,2176.88
2018-07-17T06:18:12.704Z,2098.13
2018-07-17T06:19:12.909Z,2025.00
2018-07-17T06:21:56.319Z,1873.13
2018-07-17T06:22:56.025Z,1811.25
2018-07-17T06:23:56.221Z,1760.63
2018-07-17T06:24:56.422Z,1738.13
2018-07-17T06:25:56.622Z,1732.50
2018-07-17T06:26:56.827Z,1760.63
2018-07-17T06:27:57.043Z,1816.88
2018-07-17T06:28:57.244Z,1884.38
2018-07-17T06:29:57.446Z,1935.00
2018-07-17T06:30:57.644Z,1974.38
2018-07-17T06:31:57.845Z,2002.50
2018-07-17T06:32:58.096Z,2019.38
2018-07-17T06:33:58.240Z,2075.63
2018-07-17T06:34:58.458Z,2109.38
2018-07-17T06:35:58.667Z,2182.50
2018-07-17T06:36:58.865Z,2244.38
2018-07-17T06:37:59.063Z,2041.88
2018-07-17T06:38:59.270Z,2013.75
2018-07-17T06:39:59.478Z,2216.25
2018-07-17T06:40:59.678Z,2188.13
2018-07-17T06:41:59.880Z,2165.63
2018-07-17T06:43:00.082Z,2160.00
2018-07-17T06:44:00.280Z,2143.13
2018-07-17T06:45:00.482Z,2126.25
2018-07-17T06:46:00.681Z,1940.63
2018-07-17T06:47:00.884Z,1963.13
2018-07-17T06:48:01.082Z,1873.13
2018-07-17T06:49:01.279Z,1665.00
2018-07-17T06:50:01.485Z,1608.75
2018-07-17T06:51:01.683Z,1563.75
2018-07-17T06:52:01.882Z,1473.75
2018-07-17T06:53:02.084Z,1434.38
2018-07-17T06:54:02.286Z,1361.25
2018-07-17T06:55:02.482Z,1389.38
2018-07-17T06:56:02.684Z,1366.88
2018-07-17T06:57:02.883Z,1350.00
2018-07-17T06:58:03.084Z,1496.25
2018-07-17T06:59:03.284Z,1642.50
2018-07-17T07:00:03.484Z,1738.13
2018-07-17T07:01:03.691Z,1816.88
2018-07-17T07:02:03.885Z,1935.00
2018-07-17T07:03:04.084Z,1996.88
2018-07-17T07:04:04.283Z,1878.75
2018-07-17T07:05:04.485Z,1867.50
2018-07-17T07:06:04.686Z,1895.63
2018-07-17T07:07:04.886Z,1811.25
2018-07-17T07:08:05.086Z,1850.63
2018-07-17T07:09:05.283Z,1766.25
2018-07-17T07:10:05.483Z,1704.38
2018-07-17T07:11:05.709Z,1794.38
2018-07-17T07:12:05.883Z,1867.50
2018-07-17T07:13:06.083Z,1974.38
2018-07-17T07:14:06.285Z,2036.25
2018-07-17T07:15:06.483Z,2047.50
2018-07-17T07:16:06.683Z,1951.88
2018-07-17T07:17:06.881Z,1839.38
2018-07-17T07:18:07.086Z,1957.50
2018-07-17T07:19:07.285Z,1957.50
2018-07-17T07:20:07.485Z,1968.75
2018-07-17T07:21:07.682Z,2036.25
2018-07-17T07:22:07.886Z,2053.13
2018-07-17T07:23:08.084Z,2064.38
2018-07-17T07:24:08.286Z,2036.25
2018-07-17T07:25:08.481Z,2064.38
2018-07-17T07:26:08.747Z,2041.88
2018-07-17T07:27:08.883Z,2064.38
2018-07-17T07:28:09.087Z,2002.50
2018-07-17T07:29:09.287Z,1996.88
2018-07-17T07:30:09.487Z,2013.75
2018-07-17T07:31:09.686Z,2041.88
2018-07-17T07:32:09.883Z,2053.13
2018-07-17T07:33:10.083Z,2041.88
2018-07-17T07:34:10.284Z,2025.00
2018-07-17T07:35:10.486Z,2036.25
2018-07-17T07:36:10.687Z,2064.38
2018-07-17T07:37:10.938Z,2103.75
2018-07-17T07:38:11.083Z,2131.88
2018-07-17T07:39:11.284Z,2160.00
2018-07-17T07:40:11.484Z,2165.63
2018-07-17T07:41:11.684Z,2171.25
2018-07-17T07:42:11.879Z,2182.50
2018-07-17T07:43:12.070Z,2176.88
2018-07-17T07:44:12.273Z,2109.38
2018-07-17T07:45:12.474Z,2086.88
2018-07-17T07:46:12.675Z,2019.38
2018-07-17T07:47:12.872Z,1996.88
2018-07-17T07:48:13.073Z,1991.25
2018-07-17T07:49:13.336Z,2013.75
2018-07-17T07:50:13.478Z,1985.63
2018-07-17T07:51:13.678Z,1974.38
2018-07-17T07:52:13.882Z,1963.13
2018-07-17T07:53:14.081Z,1968.75
2018-07-17T07:54:14.278Z,1957.50
2018-07-17T07:55:14.482Z,1968.75
2018-07-17T07:56:14.683Z,1980.00
2018-07-17T07:57:14.886Z,2013.75
2018-07-17T07:58:15.085Z,2025.00
2018-07-17T07:59:15.288Z,2053.13
2018-07-17T08:00:15.491Z,2036.25
2018-07-17T08:01:15.689Z,2002.50
2018-07-17T08:02:15.892Z,2008.13
2018-07-17T08:03:16.092Z,1980.00
2018-07-17T08:04:16.294Z,1974.38
2018-07-17T08:05:16.497Z,1963.13
2018-07-17T08:06:16.699Z,1963.13
2018-07-17T08:07:16.901Z,1946.25
2018-07-17T08:08:17.102Z,1923.75
2018-07-17T08:09:17.303Z,1906.88
2018-07-17T08:10:17.505Z,1895.63
2018-07-17T08:11:17.704Z,1890.00
2018-07-17T08:12:18.006Z,1878.75
2018-07-17T08:13:18.094Z,1884.38
2018-07-17T08:14:18.293Z,1873.13
2018-07-17T08:15:18.496Z,1845.00
2018-07-17T08:16:18.691Z,1833.75
2018-07-17T08:17:18.895Z,1816.88
2018-07-17T08:18:19.091Z,1805.63
2018-07-17T08:19:19.291Z,1794.38
2018-07-17T08:20:19.498Z,1777.50
2018-07-17T08:21:19.696Z,1760.63
2018-07-17T08:22:19.898Z,1715.63
2018-07-17T08:23:20.101Z,1710.00
2018-07-17T08:24:20.363Z,1676.25
2018-07-17T08:25:20.505Z,1659.38
2018-07-17T08:26:20.708Z,1653.75
2018-07-17T08:27:20.915Z,1636.88
2018-07-17T08:28:21.120Z,1631.25
2018-07-17T08:29:21.322Z,1620.00
2018-07-17T08:30:21.521Z,1625.63
2018-07-17T08:31:21.725Z,1631.25
2018-07-17T08:32:21.920Z,1614.38
2018-07-17T08:33:22.127Z,1608.75
2018-07-17T08:34:22.332Z,1591.88
2018-07-17T08:35:22.535Z,1580.63
2018-07-17T08:36:22.741Z,1586.25
2018-07-17T08:37:22.940Z,1575.00
2018-07-17T08:38:23.145Z,1569.38
2018-07-17T08:39:23.348Z,1552.50
2018-07-17T08:40:23.549Z,1535.63
2018-07-17T08:41:23.737Z,1518.75
2018-07-17T08:42:23.935Z,1501.88
2018-07-17T08:43:24.148Z,1479.38
2018-07-17T08:44:24.334Z,1417.50
2018-07-17T08:45:24.538Z,1198.13
2018-07-17T08:46:24.736Z,933.75
2018-07-17T08:47:24.934Z,753.75
2018-07-17T08:48:25.135Z,646.88
2018-07-17T08:49:25.338Z,585.00
2018-07-17T08:50:25.535Z,663.75
2018-07-17T08:51:25.733Z,545.63
2018-07-17T08:52:25.935Z,579.38
2018-07-17T08:53:26.130Z,528.75
2018-07-17T08:54:26.388Z,624.38
2018-07-17T08:55:26.538Z,680.63
2018-07-17T08:56:26.737Z,517.50
2018-07-17T08:57:26.936Z,483.75
2018-07-17T08:58:27.135Z,472.50
2018-07-17T08:59:27.336Z,455.63
2018-07-17T09:00:27.565Z,495.00
2018-07-17T09:01:27.734Z,534.38
2018-07-17T09:02:27.942Z,770.63
2018-07-17T09:03:28.132Z,1023.75
2018-07-17T09:04:28.332Z,1085.63
2018-07-17T09:05:28.534Z,1051.88
2018-07-17T09:06:28.736Z,916.88
2018-07-17T09:07:28.932Z,646.88
2018-07-17T09:08:29.131Z,438.75
2018-07-17T09:09:29.337Z,427.50
2018-07-17T09:10:29.537Z,427.50
2018-07-17T09:11:29.737Z,427.50
2018-07-17T09:12:29.936Z,455.63
2018-07-17T09:13:30.135Z,534.38
2018-07-17T09:14:30.331Z,478.13
2018-07-17T09:15:30.534Z,416.25
2018-07-17T09:16:30.732Z,410.63
2018-07-17T09:17:30.924Z,433.13
2018-07-17T09:18:31.134Z,478.13
2018-07-17T09:19:31.331Z,517.50
2018-07-17T09:20:31.527Z,472.50
2018-07-17T09:21:31.763Z,472.50
2018-07-17T09:22:31.920Z,506.25
2018-07-17T09:23:32.122Z,573.75
2018-07-17T09:24:32.321Z,618.75
2018-07-17T09:25:32.519Z,624.38
2018-07-17T09:26:32.716Z,568.13
2018-07-17T09:27:32.915Z,478.13
2018-07-17T09:28:33.114Z,450.00
2018-07-17T09:29:33.310Z,461.25
2018-07-17T09:30:33.554Z,472.50
2018-07-17T09:31:33.704Z,500.63
2018-07-17T09:32:33.902Z,495.00
2018-07-17T09:33:34.115Z,455.63
2018-07-17T09:34:34.297Z,466.88
2018-07-17T09:35:34.496Z,545.63
2018-07-17T09:36:34.693Z,579.38
2018-07-17T09:37:34.892Z,483.75
2018-07-17T09:38:35.092Z,483.75
2018-07-17T09:39:35.291Z,455.63
2018-07-17T09:40:35.488Z,421.88
2018-07-17T09:41:35.685Z,292.50
2018-07-17T09:42:35.880Z,421.88
2018-07-17T09:43:36.082Z,421.88
2018-07-17T09:44:36.279Z,405.00
2018-07-17T09:45:36.477Z,405.00
2018-07-17T09:46:36.680Z,405.00
2018-07-17T09:47:36.875Z,405.00
2018-07-17T09:48:37.089Z,405.00
2018-07-17T09:49:37.283Z,399.38
2018-07-17T09:50:37.488Z,393.75
2018-07-17T09:51:37.683Z,393.75
2018-07-17T09:52:37.883Z,399.38
2018-07-17T09:53:38.080Z,388.13
2018-07-17T09:54:38.281Z,388.13
2018-07-17T09:55:38.474Z,388.13
2018-07-17T09:56:38.674Z,376.88
2018-07-17T09:57:38.871Z,382.50
2018-07-17T09:58:39.067Z,382.50
2018-07-17T09:59:39.262Z,360.00
2018-07-17T10:00:39.461Z,247.50
2018-07-17T10:01:39.662Z,382.50
2018-07-17T10:02:39.857Z,388.13
2018-07-17T10:03:40.053Z,388.13
2018-07-17T10:04:40.322Z,388.13
2018-07-17T10:05:40.452Z,382.50
2018-07-17T10:06:40.647Z,382.50
2018-07-17T10:07:40.846Z,376.88
2018-07-17T10:08:41.054Z,382.50
2018-07-17T10:09:41.242Z,382.50
2018-07-17T10:10:41.437Z,376.88
2018-07-17T10:11:41.633Z,371.25
2018-07-17T10:12:41.832Z,360.00
2018-07-17T10:13:42.025Z,360.00
2018-07-17T10:14:42.235Z,348.75
2018-07-17T10:15:42.421Z,354.38
2018-07-17T10:16:42.621Z,360.00
2018-07-17T10:17:42.818Z,360.00
2018-07-17T10:18:43.016Z,365.63
2018-07-17T10:19:43.213Z,354.38
2018-07-17T10:20:43.411Z,354.38
2018-07-17T10:21:43.609Z,348.75
2018-07-17T10:22:43.807Z,343.13
2018-07-17T10:23:44.008Z,343.13
2018-07-17T10:24:44.201Z,348.75
2018-07-17T10:25:44.397Z,354.38
2018-07-17T10:26:44.646Z,360.00
2018-07-17T10:27:44.791Z,360.00
2018-07-17T10:28:44.987Z,360.00
2018-07-17T10:29:45.187Z,360.00
2018-07-17T10:30:45.381Z,360.00
2018-07-17T10:31:45.578Z,354.38
2018-07-17T10:32:45.778Z,354.38
2018-07-17T10:33:45.977Z,348.75
2018-07-17T10:34:46.174Z,348.75
2018-07-17T10:35:46.373Z,343.13
2018-07-17T10:36:46.571Z,337.50
2018-07-17T10:37:46.765Z,337.50
2018-07-17T10:38:47.038Z,337.50
2018-07-17T10:39:47.157Z,331.88
2018-07-17T10:40:47.356Z,326.25
2018-07-17T10:41:47.552Z,331.88
2018-07-17T10:42:47.745Z,326.25
2018-07-17T10:43:47.940Z,337.50
2018-07-17T10:44:48.136Z,337.50
2018-07-17T10:45:48.332Z,348.75
2018-07-17T10:46:48.529Z,337.50
2018-07-17T10:47:48.732Z,326.25
2018-07-17T10:48:48.921Z,331.88
2018-07-17T10:49:49.116Z,326.25
2018-07-17T10:50:49.319Z,315.00
2018-07-17T10:51:49.507Z,315.00
2018-07-17T10:52:49.705Z,309.38
2018-07-17T10:53:49.902Z,309.38
2018-07-17T10:54:50.101Z,298.13
2018-07-17T10:55:50.292Z,303.75
2018-07-17T10:56:50.487Z,309.38
2018-07-17T10:57:50.681Z,303.75
2018-07-17T10:58:50.877Z,298.13
2018-07-17T10:59:51.074Z,303.75
2018-07-17T11:00:51.277Z,303.75
2018-07-17T11:01:51.465Z,298.13
2018-07-17T11:02:51.659Z,303.75
2018-07-17T11:03:51.853Z,303.75
2018-07-17T11:04:52.049Z,303.75
2018-07-17T11:05:52.249Z,303.75
2018-07-17T11:06:52.441Z,303.75
2018-07-17T11:07:52.637Z,292.50
2018-07-17T11:08:52.835Z,303.75
2018-07-17T11:09:53.030Z,292.50
2018-07-17T11:10:53.226Z,286.88
2018-07-17T11:11:53.414Z,298.13
2018-07-17T11:12:53.657Z,286.88
2018-07-17T11:13:53.853Z,286.88
2018-07-17T11:14:54.051Z,281.25
2018-07-17T11:15:54.246Z,286.88
2018-07-17T11:16:54.440Z,292.50
2018-07-17T11:17:54.636Z,286.88
2018-07-17T11:18:54.832Z,286.88
2018-07-17T11:19:55.033Z,286.88
2018-07-17T11:20:55.230Z,286.88
2018-07-17T11:21:55.427Z,292.50
2018-07-17T11:22:55.619Z,292.50
2018-07-17T11:23:55.824Z,292.50
2018-07-17T11:24:56.028Z,298.13
2018-07-17T11:25:56.223Z,303.75
2018-07-17T11:26:56.417Z,298.13
2018-07-17T11:27:56.617Z,292.50
2018-07-17T11:28:56.814Z,292.50
2018-07-17T11:29:57.008Z,286.88
2018-07-17T11:30:57.205Z,292.50
2018-07-17T11:31:57.427Z,292.50
2018-07-17T11:32:57.600Z,286.88
2018-07-17T11:33:57.792Z,286.88
2018-07-17T11:34:57.987Z,286.88
2018-07-17T11:35:58.184Z,281.25
2018-07-17T11:36:58.379Z,286.88
2018-07-17T11:37:58.573Z,292.50
2018-07-17T11:38:58.777Z,292.50
2018-07-17T11:39:58.971Z,292.50
2018-07-17T11:40:59.162Z,298.13
2018-07-17T11:41:59.358Z,292.50
2018-07-17T11:42:59.554Z,292.50
2018-07-17T11:43:59.750Z,292.50
2018-07-17T11:44:59.946Z,298.13
2018-07-17T11:46:00.140Z,292.50
2018-07-17T11:47:00.335Z,298.13
2018-07-17T11:48:00.534Z,292.50
2018-07-17T11:49:00.729Z,292.50
2018-07-17T11:50:00.925Z,298.13
2018-07-17T11:51:01.120Z,292.50
2018-07-17T11:52:01.318Z,292.50
2018-07-17T11:53:01.510Z,292.50
2018-07-17T11:54:01.707Z,298.13
2018-07-17T11:55:01.926Z,303.75
2018-07-17T11:56:02.139Z,303.75
2018-07-17T11:57:02.336Z,303.75
2018-07-17T11:58:02.539Z,213.75
2018-07-17T11:59:02.815Z,219.38
2018-07-17T12:00:02.922Z,213.75
2018-07-17T12:01:03.120Z,315.00
2018-07-17T12:02:03.317Z,326.25
2018-07-17T12:03:03.524Z,230.63
2018-07-17T12:04:03.714Z,270.00
2018-07-17T12:05:03.905Z,315.00
2018-07-17T12:06:04.101Z,298.13
2018-07-17T12:07:04.297Z,298.13
2018-07-17T12:08:04.492Z,208.13
2018-07-17T12:09:04.684Z,202.50
2018-07-17T12:10:04.879Z,208.13
2018-07-17T12:11:05.076Z,303.75
2018-07-17T12:12:05.281Z,303.75
2018-07-17T12:13:05.576Z,309.38
2018-07-17T12:14:05.675Z,303.75
2018-07-17T12:15:05.869Z,303.75
2018-07-17T12:16:06.073Z,219.38
2018-07-17T12:17:06.267Z,219.38
2018-07-17T12:18:06.456Z,258.75
2018-07-17T12:19:06.681Z,219.38
2018-07-17T12:20:07.037Z,309.38
2018-07-17T12:21:07.108Z,303.75
2018-07-17T12:22:07.298Z,292.50
2018-07-17T12:23:07.487Z,281.25
2018-07-17T12:24:07.708Z,292.50
2018-07-17T12:25:07.882Z,303.75
2018-07-17T12:26:08.092Z,298.13
2018-07-17T12:27:08.322Z,219.38
2018-07-17T12:28:08.650Z,286.88
2018-07-17T12:29:08.716Z,292.50
2018-07-17T12:30:08.910Z,230.63
2018-07-17T12:31:09.181Z,225.00
2018-07-17T12:32:09.258Z,219.38
2018-07-17T12:33:09.467Z,213.75
2018-07-17T12:34:09.694Z,208.13
2018-07-17T12:35:09.879Z,208.13
2018-07-17T12:36:10.076Z,202.50
2018-07-17T12:37:10.278Z,202.50
2018-07-17T12:38:10.484Z,208.13
2018-07-17T12:39:10.678Z,213.75